Skip Navigation LinksHome page > Weather > Current weather Skip Navigation Links

Current Weather

New Tokyo International (Narita), Tokyo

For information only: do not use for flight planning or navigation.
Latest weather
Observation time Wednesday, September 3, 2014 1:00 PM JST
Local time Wednesday, September 3, 2014 1:31 PM JST
Flight conditions Visual Meteorological Conditions
Winds
Wind direction Northeast (40°)
Winds variable from 10° to 90°
Wind speed 12 mph
Visibility 6.2 mi.
Sky condition
Ceiling 4,000 ft. broken clouds
Cloud layer scattered clouds 2,500 ft.
Cloud layer broken clouds 4,000 ft.
Temperature 77°F
Dewpoint 66°F
Altimeter 29.97 in.Hg
Derived measurements
Relative humidity 69%
Heat index 77°F
Density altitude 1542 ft.
METAR RJAA 030400Z 04010KT 010V090 9999 SCT025 BKN040 25/19 Q1015 BECMG 07008KT RMK 3CU025 7SC040 A2999

Settings

Location code

InnerDrive.Weather 4.0.5356.0 Release CLR 4.0.30319.34014
Copyright ©2014 Inner Drive Technology. All rights reserved. Portions Copyright ©1986-2014 David Braverman.

Find weather

Site navigation


Skip Navigation Links

Place info

Page info

PayPal - The safer, easier way to pay online!

Return home.

Copyright ©2014 Inner Drive Technology. Purveyors of fine, hand-crafted computer software. Page printed 2014-09-03T04:31:36 UTC.